Time;durP1;ratioP1;P1;durP2;ratioP2;P2;SDS_P1;SDS_P2;PMS_P1;PMS_P2;Temp;Humidity;BMP_temperature;BMP_pressure;BME280_temperature;BME280_humidity;BME280_pressure;Samples;Min_cycle;Max_cycle;Signal;HPM_P1;HPM_P2
2021/06/27 00:01:19;;;;;;;7.50;6.65;;;15.40;99.90;;;;;;5034804;28;20361;-75
2021/06/27 00:03:45;;;;;;;8.77;6.60;;;15.40;99.90;;;;;;5016771;28;20029;-75
2021/06/27 00:06:11;;;;;;;12.00;7.22;;;15.40;99.90;;;;;;5034555;28;20084;-75
2021/06/27 00:08:37;;;;;;;10.98;7.43;;;15.40;99.90;;;;;;5034810;28;20471;-75
2021/06/27 00:11:05;;;;;;;11.00;7.60;;;15.40;99.90;;;;;;5034340;28;20390;-75
2021/06/27 00:13:30;;;;;;;9.10;6.63;;;15.30;99.90;;;;;;5034699;28;20104;-75
2021/06/27 00:15:57;;;;;;;9.40;8.02;;;15.30;99.90;;;;;;5034542;28;20379;-75
2021/06/27 00:18:25;;;;;;;11.35;7.38;;;15.30;99.90;;;;;;5034170;28;20125;-75
2021/06/27 00:20:55;;;;;;;10.73;6.72;;;15.20;99.90;;;;;;5034171;28;20029;-75
2021/06/27 00:26:42;;;;;;;9.68;7.43;;;15.20;99.90;;;;;;5034101;28;20088;-75
2021/06/27 00:29:08;;;;;;;8.82;7.15;;;15.20;99.90;;;;;;5033930;28;20116;-75
2021/06/27 00:31:34;;;;;;;10.85;7.38;;;15.10;99.90;;;;;;5034289;28;20029;-75
2021/06/27 00:33:59;;;;;;;10.38;8.63;;;15.10;99.90;;;;;;5034434;28;20025;-75
2021/06/27 00:36:25;;;;;;;14.00;11.15;;;15.10;99.90;;;;;;5034081;28;20030;-75
2021/06/27 00:38:51;;;;;;;15.80;10.55;;;15.10;99.90;;;;;;5034112;28;20116;-75
2021/06/27 00:41:16;;;;;;;13.60;9.23;;;15.00;99.90;;;;;;5033826;28;20417;-75
2021/06/27 00:43:42;;;;;;;14.38;8.63;;;15.00;99.90;;;;;;5033741;28;20029;-75
2021/06/27 00:46:07;;;;;;;10.02;8.75;;;14.90;99.90;;;;;;5033740;28;20025;-75
2021/06/27 00:48:33;;;;;;;10.45;8.20;;;14.90;99.90;;;;;;5015876;28;20025;-75
2021/06/27 00:50:59;;;;;;;13.02;8.85;;;14.80;99.90;;;;;;5033798;28;20037;-75
2021/06/27 00:53:26;;;;;;;11.82;8.65;;;14.80;99.90;;;;;;5015826;28;20548;-75
2021/06/27 00:55:56;;;;;;;11.00;7.60;;;14.80;99.90;;;;;;5033465;28;20101;-75
2021/06/27 00:58:25;;;;;;;11.65;8.70;;;14.70;99.90;;;;;;5033468;28;20018;-75
2021/06/27 01:00:51;;;;;;;11.02;8.43;;;14.70;99.90;;;;;;5033721;28;20030;-75
2021/06/27 01:06:39;;;;;;;10.15;8.65;;;14.70;99.90;;;;;;5033483;28;20036;-75
2021/06/27 01:09:05;;;;;;;11.15;8.55;;;14.70;99.90;;;;;;5015608;28;20382;-75
2021/06/27 01:11:31;;;;;;;12.07;9.15;;;14.70;99.90;;;;;;5033838;28;20033;-75
2021/06/27 01:13:59;;;;;;;12.90;9.27;;;14.60;99.90;;;;;;5033758;28;20030;-75
2021/06/27 01:16:24;;;;;;;11.32;8.50;;;14.70;99.90;;;;;;5033189;28;20017;-75
2021/06/27 01:18:54;;;;;;;14.75;9.85;;;14.70;99.90;;;;;;5033200;28;20067;-75
2021/06/27 01:21:20;;;;;;;12.95;9.40;;;14.60;99.90;;;;;;5033440;28;20022;-75
2021/06/27 01:23:46;;;;;;;15.18;9.73;;;14.60;99.90;;;;;;5033670;28;20026;-75
2021/06/27 01:26:11;;;;;;;13.98;9.93;;;14.70;99.90;;;;;;5033375;28;20489;-75
2021/06/27 01:28:37;;;;;;;15.50;11.57;;;14.60;99.90;;;;;;5033281;28;20032;-75
2021/06/27 01:31:02;;;;;;;23.40;14.90;;;14.60;99.90;;;;;;5015178;28;20550;-75
2021/06/27 01:33:28;;;;;;;20.15;14.95;;;14.60;99.90;;;;;;5033352;28;20362;-75
2021/06/27 01:35:54;;;;;;;21.00;13.63;;;14.60;99.90;;;;;;5033530;28;20030;-75
2021/06/27 01:38:21;;;;;;;16.95;12.50;;;14.60;99.90;;;;;;5032975;28;20413;-75
2021/06/27 01:40:48;;;;;;;17.48;12.82;;;14.60;99.90;;;;;;5033228;28;20037;-75
2021/06/27 01:46:36;;;;;;;13.63;11.52;;;14.60;99.90;;;;;;5032932;28;20093;-75
2021/06/27 01:49:02;;;;;;;16.00;10.15;;;14.60;99.90;;;;;;5015143;28;20021;-74
2021/06/27 01:51:27;;;;;;;11.68;8.95;;;14.60;99.90;;;;;;5032770;28;20033;-74
2021/06/27 01:53:53;;;;;;;13.10;7.93;;;14.60;99.90;;;;;;5032854;28;20021;-74
2021/06/27 01:56:18;;;;;;;9.25;7.40;;;14.50;99.90;;;;;;5032798;28;20049;-74
2021/06/27 01:58:50;;;;;;;11.23;8.40;;;14.50;99.90;;;;;;5033032;28;20407;-75
2021/06/27 02:01:17;;;;;;;11.13;8.05;;;14.40;99.90;;;;;;5033000;28;20096;-75
2021/06/27 02:03:44;;;;;;;9.70;7.78;;;14.40;99.90;;;;;;5032748;28;20037;-74
2021/06/27 02:06:10;;;;;;;14.75;8.15;;;14.40;99.90;;;;;;5015409;28;20045;-75
2021/06/27 02:08:38;;;;;;;11.15;8.45;;;14.30;99.90;;;;;;5037422;28;20101;-75
2021/06/27 02:11:05;;;;;;;12.50;7.63;;;14.30;99.90;;;;;;5036825;28;20045;-75
2021/06/27 02:13:32;;;;;;;8.73;7.28;;;14.20;99.90;;;;;;5036835;28;20481;-75
2021/06/27 02:15:58;;;;;;;12.02;7.75;;;14.20;99.90;;;;;;5036639;28;20033;-75
2021/06/27 02:18:32;;;;;;;8.75;7.85;;;14.20;99.90;;;;;;5036645;28;20048;-75
2021/06/27 02:21:01;;;;;;;13.03;8.23;;;14.20;99.90;;;;;;5036573;28;20446;-75
2021/06/27 02:23:27;;;;;;;10.30;7.85;;;14.20;99.90;;;;;;5036624;28;20033;-75
2021/06/27 02:25:53;;;;;;;9.38;8.38;;;14.10;99.90;;;;;;5036380;28;20100;-75
2021/06/27 02:28:20;;;;;;;14.73;8.68;;;14.10;99.90;;;;;;5036551;28;20097;-74
2021/06/27 02:30:45;;;;;;;11.23;8.18;;;14.10;99.90;;;;;;5036216;28;20026;-74
2021/06/27 02:33:11;;;;;;;10.00;7.78;;;14.10;99.90;;;;;;5036213;28;20028;-75
2021/06/27 02:35:38;;;;;;;9.05;7.38;;;14.00;99.90;;;;;;5036159;28;20049;-74
2021/06/27 02:38:05;;;;;;;8.25;7.03;;;14.00;99.90;;;;;;5036127;28;20024;-75
2021/06/27 02:40:30;;;;;;;10.20;7.22;;;14.00;99.90;;;;;;5036085;28;20025;-75
2021/06/27 02:42:56;;;;;;;11.10;7.53;;;14.00;99.90;;;;;;5036292;28;20112;-75
2021/06/27 02:45:22;;;;;;;9.52;7.40;;;14.00;99.90;;;;;;5018166;28;20036;-75
2021/06/27 02:47:47;;;;;;;9.07;7.68;;;14.00;99.90;;;;;;5035890;28;20027;-75
2021/06/27 02:50:15;;;;;;;11.57;7.82;;;14.00;99.90;;;;;;5036030;28;20109;-75
2021/06/27 02:52:41;;;;;;;14.63;8.40;;;13.90;99.90;;;;;;5036302;28;20024;-75
2021/06/27 02:55:08;;;;;;;10.15;7.45;;;13.90;99.90;;;;;;5017969;28;20056;-75
2021/06/27 02:57:34;;;;;;;10.75;7.78;;;13.80;99.90;;;;;;5035982;28;20036;-75
2021/06/27 03:00:00;;;;;;;9.23;6.97;;;13.80;99.90;;;;;;5035819;28;20038;-75
2021/06/27 03:02:25;;;;;;;8.93;7.75;;;13.80;99.90;;;;;;5017949;28;20030;-75
2021/06/27 03:04:51;;;;;;;10.60;6.85;;;13.80;99.90;;;;;;5035981;28;20482;-75
2021/06/27 03:07:17;;;;;;;7.85;7.05;;;13.70;99.90;;;;;;5035584;28;20470;-75
2021/06/27 03:09:42;;;;;;;9.52;7.18;;;13.70;99.90;;;;;;5035694;28;20036;-75
2021/06/27 03:12:11;;;;;;;7.95;6.80;;;13.70;99.90;;;;;;5035563;28;20079;-75
2021/06/27 03:14:36;;;;;;;8.07;6.75;;;13.60;99.90;;;;;;5035743;28;20024;-75
2021/06/27 03:17:02;;;;;;;9.43;6.85;;;13.60;99.90;;;;;;5035715;28;20022;-75
2021/06/27 03:19:28;;;;;;;9.13;6.75;;;13.60;99.90;;;;;;5016848;28;20125;-75
2021/06/27 03:21:53;;;;;;;10.70;6.93;;;13.60;99.90;;;;;;5035363;28;20025;-75
2021/06/27 03:24:19;;;;;;;8.18;6.47;;;13.60;99.90;;;;;;5035563;28;20348;-74
2021/06/27 03:26:44;;;;;;;9.63;7.40;;;13.60;99.90;;;;;;5035723;28;20024;-75
2021/06/27 03:29:10;;;;;;;10.02;6.78;;;13.60;99.90;;;;;;5035421;28;20075;-75
2021/06/27 03:31:36;;;;;;;9.27;7.22;;;13.60;99.90;;;;;;5035440;28;20077;-74
2021/06/27 03:34:01;;;;;;;9.70;7.65;;;13.60;99.90;;;;;;5017969;28;20414;-75
2021/06/27 03:36:27;;;;;;;9.15;6.78;;;13.60;99.90;;;;;;5035166;28;20030;-75
2021/06/27 03:39:06;;;;;;;10.82;7.63;;;13.60;99.90;;;;;;5018090;28;20431;-74
2021/06/27 03:41:48;;;;;;;8.60;7.50;;;13.60;99.90;;;;;;5035215;28;20026;-74
2021/06/27 03:44:13;;;;;;;8.25;6.95;;;13.60;99.90;;;;;;5034908;28;20045;-75
2021/06/27 03:46:39;;;;;;;8.05;6.38;;;13.60;99.90;;;;;;5035128;28;20455;-75
2021/06/27 03:49:05;;;;;;;7.93;6.68;;;13.60;99.90;;;;;;5034836;28;20025;-75
2021/06/27 03:51:31;;;;;;;11.68;6.40;;;13.60;99.90;;;;;;5034665;28;20036;-74
2021/06/27 03:53:57;;;;;;;8.90;7.28;;;13.60;99.90;;;;;;5035216;28;20508;-74
2021/06/27 03:56:22;;;;;;;8.38;6.38;;;13.70;99.90;;;;;;5034899;28;20017;-74
2021/06/27 03:58:48;;;;;;;7.88;6.30;;;13.70;99.90;;;;;;5034909;28;20044;-75
2021/06/27 04:01:14;;;;;;;8.93;6.03;;;13.70;99.90;;;;;;5034577;28;20021;-75
2021/06/27 04:03:40;;;;;;;6.88;6.18;;;13.80;99.90;;;;;;5034777;28;20033;-75
2021/06/27 04:06:06;;;;;;;8.50;6.28;;;13.90;99.90;;;;;;5034507;28;20029;-75
2021/06/27 04:08:33;;;;;;;6.88;6.18;;;13.90;99.90;;;;;;5034316;28;20031;-78
2021/06/27 04:10:59;;;;;;;8.40;5.25;;;13.90;99.90;;;;;;5024442;28;20114;-79
2021/06/27 04:13:30;;;;;;;9.05;5.75;;;13.90;99.90;;;;;;5029313;28;20221;-79
2021/06/27 04:15:57;;;;;;;11.35;5.53;;;13.90;99.90;;;;;;5050438;28;20051;-74
2021/06/27 04:18:23;;;;;;;6.03;5.03;;;14.00;99.90;;;;;;5033948;28;20041;-74
2021/06/27 04:20:50;;;;;;;7.63;5.60;;;14.00;99.90;;;;;;5053719;28;20435;-74
2021/06/27 04:23:16;;;;;;;7.78;5.20;;;14.00;99.90;;;;;;5036196;28;20033;-74
2021/06/27 04:25:42;;;;;;;7.05;5.22;;;14.00;99.90;;;;;;5054583;28;20029;-74
2021/06/27 04:28:08;;;;;;;6.75;5.28;;;14.10;99.90;;;;;;5054416;28;20029;-74
2021/06/27 04:30:35;;;;;;;7.55;5.07;;;14.20;99.90;;;;;;5053146;28;20051;-74
2021/06/27 04:33:01;;;;;;;8.20;4.57;;;14.30;99.90;;;;;;5050912;28;20024;-74
2021/06/27 04:35:27;;;;;;;5.85;4.50;;;14.30;99.90;;;;;;5054333;28;20018;-74
2021/06/27 04:37:52;;;;;;;6.22;4.30;;;14.40;99.90;;;;;;5054161;28;20013;-74
2021/06/27 04:40:18;;;;;;;5.32;4.28;;;14.50;99.90;;;;;;5053845;28;20111;-74
2021/06/27 04:42:43;;;;;;;6.28;4.40;;;14.60;99.90;;;;;;5035912;28;20097;-74
2021/06/27 04:45:09;;;;;;;6.72;4.60;;;14.70;99.90;;;;;;5053986;28;20036;-75
2021/06/27 04:47:35;;;;;;;8.70;4.45;;;14.70;99.90;;;;;;5054143;28;20481;-75
2021/06/27 04:50:03;;;;;;;5.82;4.28;;;14.80;99.90;;;;;;5053819;28;20021;-74
2021/06/27 04:52:29;;;;;;;6.82;4.05;;;14.80;99.90;;;;;;5053983;28;20029;-74
2021/06/27 04:54:54;;;;;;;5.78;4.30;;;14.90;99.90;;;;;;5035576;28;20021;-75
2021/06/27 04:57:20;;;;;;;5.03;4.53;;;15.00;99.90;;;;;;5053704;28;20104;-75
2021/06/27 04:59:46;;;;;;;10.88;5.38;;;15.00;99.90;;;;;;5053404;28;20120;-75
2021/06/27 05:02:11;;;;;;;9.35;5.10;;;15.10;99.90;;;;;;5053814;28;20024;-75
2021/06/27 05:04:37;;;;;;;7.35;5.20;;;15.20;99.90;;;;;;5050442;28;20832;-79
2021/06/27 05:07:02;;;;;;;5.50;4.65;;;15.20;99.90;;;;;;5047201;28;20443;-78
2021/06/27 05:09:28;;;;;;;6.50;4.60;;;15.30;99.90;;;;;;5046912;28;20029;-78
2021/06/27 05:11:53;;;;;;;5.95;5.13;;;15.40;99.90;;;;;;5046563;28;20488;-78
2021/06/27 05:14:19;;;;;;;6.95;4.97;;;15.50;99.90;;;;;;5046427;28;20110;-78
2021/06/27 05:16:44;;;;;;;5.57;4.95;;;15.60;99.90;;;;;;5028523;28;20104;-79
2021/06/27 05:19:10;;;;;;;6.50;4.63;;;15.80;99.90;;;;;;5028353;28;20049;-79
2021/06/27 05:21:36;;;;;;;7.43;4.45;;;15.90;99.90;;;;;;5045948;28;20132;-80
2021/06/27 05:24:01;;;;;;;5.82;4.32;;;16.00;99.90;;;;;;5046554;28;20118;-79
2021/06/27 05:26:27;;;;;;;5.53;4.18;;;16.20;99.90;;;;;;5035543;28;20025;-72
2021/06/27 05:28:52;;;;;;;5.53;4.13;;;16.30;99.90;;;;;;5022568;28;20029;-71
2021/06/27 05:31:18;;;;;;;4.88;3.97;;;16.30;99.90;;;;;;5043445;28;20025;-71
2021/06/27 05:33:44;;;;;;;5.38;4.07;;;16.30;99.90;;;;;;5032363;28;20021;-74
2021/06/27 05:36:10;;;;;;;5.88;4.00;;;16.40;99.90;;;;;;5047927;28;20104;-70
2021/06/27 05:38:35;;;;;;;9.68;4.30;;;16.50;99.90;;;;;;5042929;28;20105;-70
2021/06/27 05:41:01;;;;;;;5.95;4.32;;;16.60;99.90;;;;;;5044691;28;20078;-71
2021/06/27 05:43:27;;;;;;;6.30;4.03;;;16.70;99.90;;;;;;5045067;28;20147;-71
2021/06/27 05:45:52;;;;;;;4.55;3.30;;;16.80;99.90;;;;;;5045111;28;20477;-71
2021/06/27 05:48:18;;;;;;;3.85;2.15;;;16.90;99.90;;;;;;5045251;28;20037;-70
2021/06/27 05:50:43;;;;;;;3.42;2.40;;;17.00;99.90;;;;;;5039355;28;20025;-71
2021/06/27 05:53:09;;;;;;;3.75;2.50;;;17.10;99.90;;;;;;5045079;28;20107;-71
2021/06/27 05:55:34;;;;;;;3.25;2.67;;;17.20;99.90;;;;;;5041648;28;20080;-71
2021/06/27 05:58:00;;;;;;;4.38;2.58;;;17.30;99.90;;;;;;5047470;28;20103;-71
2021/06/27 06:00:25;;;;;;;4.13;3.20;;;17.40;99.90;;;;;;5041268;28;20038;-71
2021/06/27 06:02:51;;;;;;;5.72;2.97;;;17.50;99.90;;;;;;5024069;28;20041;-74
2021/06/27 06:05:16;;;;;;;4.57;3.20;;;17.60;99.90;;;;;;5039613;28;20037;-76
2021/06/27 06:07:42;;;;;;;4.35;3.20;;;17.80;99.90;;;;;;5052699;28;20107;-73
2021/06/27 06:10:08;;;;;;;5.07;3.30;;;17.90;99.90;;;;;;5052638;28;20064;-73
2021/06/27 06:12:33;;;;;;;3.47;2.67;;;18.10;99.90;;;;;;5052815;28;20397;-74
2021/06/27 06:14:59;;;;;;;6.50;2.80;;;18.10;99.90;;;;;;5035096;28;20028;-74
2021/06/27 06:17:25;;;;;;;3.92;2.50;;;18.30;99.90;;;;;;5043474;28;20526;-74
2021/06/27 06:19:53;;;;;;;3.95;2.35;;;18.60;99.90;;;;;;5052495;28;20053;-73
2021/06/27 06:22:20;;;;;;;2.05;1.70;;;18.80;99.90;;;;;;5052547;28;20032;-73
2021/06/27 06:24:46;;;;;;;4.10;1.83;;;19.00;99.90;;;;;;5052298;28;20051;-73
2021/06/27 06:27:12;;;;;;;1.90;1.50;;;19.10;99.90;;;;;;5052744;28;20047;-74
2021/06/27 06:29:38;;;;;;;3.03;2.03;;;19.20;99.90;;;;;;5052565;28;20072;-74
2021/06/27 06:32:04;;;;;;;2.78;2.08;;;19.10;99.90;;;;;;5053061;28;20053;-74
2021/06/27 06:34:29;;;;;;;1.80;1.40;;;19.30;99.90;;;;;;5052620;28;20100;-74
2021/06/27 06:36:55;;;;;;;1.88;1.60;;;19.30;99.90;;;;;;5034695;28;20017;-74
2021/06/27 06:39:20;;;;;;;3.35;1.60;;;19.40;99.90;;;;;;5052553;28;20444;-74
2021/06/27 06:41:46;;;;;;;3.55;1.90;;;19.40;99.90;;;;;;5052709;28;20365;-74
2021/06/27 06:44:11;;;;;;;2.15;1.50;;;19.30;99.90;;;;;;5052547;28;20021;-74
2021/06/27 06:46:37;;;;;;;5.35;2.20;;;19.40;99.90;;;;;;5045942;28;20126;-74
2021/06/27 06:49:03;;;;;;;3.28;1.83;;;19.30;99.90;;;;;;5032741;28;20098;-74
2021/06/27 06:51:28;;;;;;;2.85;1.42;;;19.30;99.90;;;;;;5033802;28;20033;-73
2021/06/27 06:53:54;;;;;;;3.33;1.50;;;19.30;99.90;;;;;;5035899;28;20017;-74
2021/06/27 06:56:21;;;;;;;6.50;2.13;;;19.40;99.90;;;;;;5054344;28;20025;-73
2021/06/27 06:58:46;;;;;;;2.50;2.00;;;19.40;99.90;;;;;;5058060;28;20017;-73
2021/06/27 07:01:12;;;;;;;3.03;1.92;;;19.40;99.90;;;;;;5056808;28;20074;-72
2021/06/27 07:03:37;;;;;;;3.53;2.40;;;19.30;99.90;;;;;;5054410;28;20462;-76
2021/06/27 07:06:03;;;;;;;4.25;1.77;;;19.30;99.90;;;;;;5042891;28;20538;-72
2021/06/27 07:08:29;;;;;;;2.28;1.70;;;19.30;99.90;;;;;;5040279;28;20025;-72
2021/06/27 07:10:55;;;;;;;3.67;1.50;;;19.30;99.90;;;;;;5055566;28;20041;-72
2021/06/27 07:13:21;;;;;;;2.40;1.92;;;19.40;99.90;;;;;;5055224;28;20036;-72
2021/06/27 07:15:47;;;;;;;1.85;1.50;;;19.40;99.90;;;;;;5055209;28;20036;-72
2021/06/27 07:18:12;;;;;;;3.08;1.67;;;19.50;99.90;;;;;;5055222;28;20037;-73
2021/06/27 07:20:38;;;;;;;3.72;1.70;;;19.50;99.90;;;;;;5055537;28;20347;-73
2021/06/27 07:23:04;;;;;;;2.53;1.90;;;19.70;99.90;;;;;;5055654;28;20033;-73
2021/06/27 07:25:29;;;;;;;4.95;1.95;;;19.70;99.90;;;;;;5055245;28;20035;-72
2021/06/27 07:27:56;;;;;;;2.63;1.85;;;19.70;99.90;;;;;;5055520;28;20029;-72
2021/06/27 07:30:21;;;;;;;2.72;2.10;;;19.80;99.90;;;;;;5055363;28;20361;-72
2021/06/27 07:32:53;;;;;;;4.43;2.20;;;19.80;99.90;;;;;;5055298;28;20017;-72
2021/06/27 07:35:18;;;;;;;3.20;1.98;;;19.70;99.90;;;;;;5044290;28;20032;-72
2021/06/27 07:37:45;;;;;;;4.45;2.60;;;19.80;99.90;;;;;;5036019;28;20018;-72
2021/06/27 07:40:11;;;;;;;4.15;2.40;;;19.90;99.90;;;;;;5044896;28;20079;-72
2021/06/27 07:42:37;;;;;;;2.80;2.25;;;20.00;99.90;;;;;;5055467;28;20056;-72
2021/06/27 07:45:04;;;;;;;5.05;2.80;;;20.00;99.90;;;;;;5055054;28;20091;-72
2021/06/27 07:47:29;;;;;;;3.67;3.05;;;20.10;99.90;;;;;;5055288;28;20074;-72
2021/06/27 07:49:55;;;;;;;3.35;2.60;;;20.10;99.90;;;;;;5049083;28;20029;-73
2021/06/27 07:52:20;;;;;;;4.22;2.60;;;20.10;99.90;;;;;;5046499;28;20033;-72
2021/06/27 07:54:46;;;;;;;4.75;2.75;;;20.10;99.90;;;;;;5055050;28;20025;-73
2021/06/27 07:57:11;;;;;;;4.47;3.10;;;20.20;99.90;;;;;;5054789;28;20052;-73
2021/06/27 07:59:37;;;;;;;3.50;2.70;;;20.30;99.90;;;;;;5033825;28;20079;-74
2021/06/27 08:02:03;;;;;;;4.07;2.90;;;20.50;99.90;;;;;;5040579;28;20028;-74
2021/06/27 08:04:28;;;;;;;5.13;2.60;;;20.60;99.90;;;;;;5054121;28;20111;-72
2021/06/27 08:06:54;;;;;;;3.90;2.88;;;20.60;99.90;;;;;;5054524;28;20426;-72
2021/06/27 08:09:20;;;;;;;5.22;2.92;;;20.80;99.90;;;;;;5054543;28;20060;-71
2021/06/27 08:11:46;;;;;;;4.45;2.20;;;20.90;99.90;;;;;;5054719;28;20027;-72
2021/06/27 08:14:11;;;;;;;1.90;1.50;;;21.00;99.90;;;;;;5054721;28;20025;-72
2021/06/27 08:16:37;;;;;;;2.75;1.42;;;21.10;99.90;;;;;;5054622;28;20100;-72
2021/06/27 08:19:04;;;;;;;3.55;1.33;;;21.30;99.90;;;;;;5054358;28;20072;-72
2021/06/27 08:21:30;;;;;;;1.65;1.20;;;21.30;99.90;;;;;;5054870;28;20021;-72
2021/06/27 08:23:55;;;;;;;4.90;2.05;;;21.30;99.90;;;;;;5053022;28;20029;-72
2021/06/27 08:26:23;;;;;;;5.22;1.95;;;21.40;99.90;;;;;;5054428;28;20055;-71
2021/06/27 08:28:50;;;;;;;2.08;1.30;;;21.50;99.90;;;;;;5054138;28;20112;-72
2021/06/27 08:31:15;;;;;;;2.00;1.15;;;21.70;99.90;;;;;;5054054;28;20166;-72
2021/06/27 08:33:41;;;;;;;1.60;1.25;;;21.70;99.90;;;;;;5054269;28;20029;-72
2021/06/27 08:36:07;;;;;;;2.35;1.30;;;21.80;99.90;;;;;;5054061;28;20092;-72
2021/06/27 08:38:32;;;;;;;3.63;1.95;;;22.00;99.90;;;;;;5053979;28;20035;-72
2021/06/27 08:40:58;;;;;;;3.08;1.40;;;22.10;99.90;;;;;;5054263;28;20025;-72
2021/06/27 08:43:32;;;;;;;2.15;1.33;;;22.10;99.90;;;;;;5053904;28;20097;-71
2021/06/27 08:45:59;;;;;;;2.30;1.60;;;22.10;99.90;;;;;;5053867;28;20029;-72
2021/06/27 08:48:28;;;;;;;2.00;1.40;;;22.20;99.90;;;;;;5054030;28;20248;-72
2021/06/27 08:50:54;;;;;;;2.33;1.48;;;22.20;99.90;;;;;;5053685;28;20033;-72
2021/06/27 08:53:21;;;;;;;1.98;1.30;;;22.20;99.90;;;;;;5035833;28;20044;-72
2021/06/27 08:56:04;;;;;;;3.83;1.60;;;22.30;99.90;;;;;;5053666;28;20033;-71
2021/06/27 08:58:30;;;;;;;2.67;1.52;;;22.40;99.90;;;;;;5053949;28;20468;-72
2021/06/27 09:00:58;;;;;;;1.92;1.30;;;22.50;99.90;;;;;;5035635;28;20061;-72
2021/06/27 09:03:23;;;;;;;2.08;1.40;;;22.60;99.90;;;;;;5054022;28;20024;-72
2021/06/27 09:05:49;;;;;;;2.08;1.33;;;22.60;99.90;;;;;;5052155;28;20112;-72
2021/06/27 09:08:17;;;;;;;2.42;1.67;;;22.70;99.90;;;;;;5054009;28;20363;-72
2021/06/27 09:10:43;;;;;;;1.75;1.40;;;22.80;99.90;;;;;;5053565;28;20104;-72
2021/06/27 09:13:09;;;;;;;1.80;1.40;;;22.70;99.90;;;;;;5035469;28;20433;-72
2021/06/27 09:15:49;;;;;;;2.20;1.45;;;22.90;99.90;;;;;;5053708;28;20021;-72
2021/06/27 09:18:14;;;;;;;4.03;1.58;;;22.80;99.90;;;;;;5053260;28;20041;-72
2021/06/27 09:20:43;;;;;;;3.90;1.50;;;22.90;99.90;;;;;;5053439;28;20528;-72
2021/06/27 09:23:10;;;;;;;3.10;1.23;;;23.00;99.90;;;;;;5053473;28;20041;-72
2021/06/27 09:25:36;;;;;;;2.58;1.40;;;23.10;99.90;;;;;;5053536;28;20373;-72
2021/06/27 09:28:06;;;;;;;1.88;1.42;;;23.10;99.90;;;;;;5053214;28;20057;-72
2021/06/27 09:30:36;;;;;;;2.45;1.50;;;23.30;99.90;;;;;;5053344;28;20338;-72
2021/06/27 09:33:09;;;;;;;1.70;1.40;;;23.30;99.90;;;;;;5053065;28;20028;-72
2021/06/27 09:35:43;;;;;;;1.90;1.58;;;23.50;99.90;;;;;;5053344;28;20026;-72
2021/06/27 09:38:21;;;;;;;;;;;23.50;99.90;;;;;;5053766;28;20021;-72
2021/06/27 09:40:49;;;;;;;2.88;1.50;;;23.60;99.90;;;;;;5053005;28;19901;-72
2021/06/27 09:43:15;;;;;;;2.40;1.60;;;23.60;99.90;;;;;;5053314;28;20033;-72
2021/06/27 09:45:50;;;;;;;3.15;1.70;;;23.80;99.90;;;;;;5053026;28;20035;-72
2021/06/27 09:48:16;;;;;;;2.30;1.60;;;24.00;99.90;;;;;;5053248;28;20120;-72
2021/06/27 09:50:42;;;;;;;2.42;1.35;;;24.20;99.90;;;;;;5053140;28;20104;-72
2021/06/27 09:53:31;;;;;;;2.75;1.55;;;24.30;99.90;;;;;;5052867;28;20017;-72
2021/06/27 09:55:57;;;;;;;2.20;1.60;;;24.60;99.90;;;;;;5034903;28;20025;-72
2021/06/27 09:58:24;;;;;;;2.40;1.40;;;24.70;99.90;;;;;;5052769;28;20477;-72
2021/06/27 10:00:49;;;;;;;2.85;1.73;;;25.00;99.90;;;;;;5053124;28;20017;-72
2021/06/27 10:03:15;;;;;;;1.50;1.27;;;25.20;99.90;;;;;;5052840;28;20094;-72
2021/06/27 10:05:40;;;;;;;2.83;1.90;;;25.30;99.90;;;;;;5053360;28;20083;-72
2021/06/27 10:08:06;;;;;;;2.85;1.40;;;25.50;99.90;;;;;;5053099;28;20033;-72
2021/06/27 10:10:31;;;;;;;2.83;1.70;;;25.70;99.90;;;;;;5052754;28;20111;-72
2021/06/27 10:12:57;;;;;;;1.85;1.50;;;25.90;99.90;;;;;;5053231;28;20394;-72
2021/06/27 10:15:23;;;;;;;2.67;2.33;;;26.00;99.90;;;;;;5052720;28;20488;-72
2021/06/27 10:17:48;;;;;;;1.98;1.48;;;26.10;99.90;;;;;;5052791;28;20045;-72
2021/06/27 10:20:16;;;;;;;1.35;1.25;;;26.30;99.90;;;;;;5052582;28;20053;-72
2021/06/27 10:22:42;;;;;;;1.52;1.25;;;26.60;99.90;;;;;;5034822;28;20028;-72
2021/06/27 10:25:17;;;;;;;1.42;1.30;;;27.00;99.90;;;;;;5053069;28;20028;-72
2021/06/27 10:27:43;;;;;;;2.03;1.40;;;27.10;99.90;;;;;;5052827;28;20470;-72
2021/06/27 10:30:11;;;;;;;3.25;1.30;;;27.30;99.90;;;;;;5056171;28;20039;-72
2021/06/27 10:32:38;;;;;;;1.73;1.40;;;27.30;99.90;;;;;;5056360;28;20020;-72
2021/06/27 10:35:08;;;;;;;1.70;1.48;;;27.30;99.90;;;;;;5056458;28;20025;-72
2021/06/27 10:37:43;;;;;;;2.38;1.20;;;27.50;99.90;;;;;;5056145;28;20048;-72
2021/06/27 10:40:13;;;;;;;2.08;1.23;;;27.50;99.90;;;;;;5056523;28;20025;-72
2021/06/27 10:42:58;;;;;;;4.25;1.40;;;27.50;99.30;;;;;;5056194;28;20025;-72
2021/06/27 10:45:49;;;;;;;1.60;1.30;;;27.80;99.90;;;;;;5056141;28;20021;-72
2021/06/27 10:48:33;;;;;;;4.00;1.45;;;27.90;99.90;;;;;;5056211;28;20025;-72
2021/06/27 10:51:10;;;;;;;2.95;1.60;;;27.80;99.00;;;;;;5056017;28;20109;-72
2021/06/27 10:54:14;;;;;;;1.45;1.10;;;28.00;98.60;;;;;;5056209;28;20408;-72
2021/06/27 10:57:02;;;;;;;1.70;1.40;;;28.00;99.90;;;;;;5055910;28;20035;-72
2021/06/27 10:59:40;;;;;;;1.48;1.20;;;28.00;97.40;;;;;;5054495;28;20021;-72
2021/06/27 11:02:22;;;;;;;1.67;1.27;;;28.20;99.70;;;;;;5055788;28;20377;-72
2021/06/27 11:04:52;;;;;;;1.35;1.23;;;28.50;96.60;;;;;;5055944;28;20112;-74
2021/06/27 11:07:35;;;;;;;2.17;1.30;;;28.60;98.10;;;;;;5055676;28;20060;-73
2021/06/27 11:10:21;;;;;;;1.58;1.30;;;28.60;96.40;;;;;;5050688;28;20037;-73
2021/06/27 11:12:58;;;;;;;3.88;2.00;;;28.80;97.40;;;;;;5054957;28;20458;-73
2021/06/27 11:15:29;;;;;;;2.60;1.60;;;28.60;98.70;;;;;;5055283;28;20104;-72
2021/06/27 11:18:06;;;;;;;10.02;9.05;;;28.60;95.60;;;;;;5055106;28;20492;-73
2021/06/27 11:20:51;;;;;;;10.73;9.73;;;28.60;94.90;;;;;;5055535;28;20040;-73
2021/06/27 11:23:17;;;;;;;1.85;1.35;;;28.70;96.50;;;;;;5054750;28;20087;-73
2021/06/27 11:25:49;;;;;;;2.88;1.35;;;28.70;92.90;;;;;;5055331;28;20025;-73
2021/06/27 11:28:20;;;;;;;1.65;1.35;;;28.50;91.20;;;;;;5055808;28;20087;-73
2021/06/27 11:30:46;;;;;;;2.28;1.30;;;28.70;93.50;;;;;;5054981;28;20528;-73
2021/06/27 11:33:21;;;;;;;2.80;1.52;;;28.80;92.30;;;;;;5055269;28;20025;-73
2021/06/27 11:35:58;;;;;;;1.90;1.30;;;28.90;93.30;;;;;;5054945;28;20021;-73
2021/06/27 11:38:37;;;;;;;2.30;1.38;;;28.90;94.50;;;;;;5055035;28;20025;-73
2021/06/27 11:41:25;;;;;;;2.15;1.45;;;29.00;96.40;;;;;;5054575;28;20104;-73
2021/06/27 11:43:54;;;;;;;1.63;1.30;;;29.10;93.00;;;;;;5047889;28;20136;-73
2021/06/27 11:46:42;;;;;;;2.05;1.35;;;29.30;93.10;;;;;;5055025;28;20037;-73
2021/06/27 11:49:10;;;;;;;2.35;1.50;;;29.30;92.50;;;;;;5033077;28;20091;-77
2021/06/27 11:51:46;;;;;;;2.00;1.20;;;29.60;91.70;;;;;;5033992;28;20040;-76
2021/06/27 11:54:14;;;;;;;1.63;1.48;;;29.70;90.20;;;;;;5029202;28;20075;-77
2021/06/27 11:56:58;;;;;;;4.00;3.70;;;29.60;91.30;;;;;;5039387;28;20124;-77
2021/06/27 11:59:26;;;;;;;2.40;1.20;;;29.50;90.90;;;;;;5030100;28;20442;-77
2021/06/27 12:02:19;;;;;;;2.20;1.27;;;29.70;88.70;;;;;;5027473;28;20032;-77
2021/06/27 12:04:50;;;;;;;3.53;1.85;;;29.70;92.40;;;;;;5043761;28;20034;-76
2021/06/27 12:07:26;;;;;;;7.32;6.68;;;29.70;94.40;;;;;;5050592;28;20040;-75
2021/06/27 12:09:53;;;;;;;2.35;1.55;;;29.60;97.00;;;;;;5034271;28;20033;-77
2021/06/27 12:12:58;;;;;;;4.22;3.00;;;29.60;89.90;;;;;;5035746;28;20036;-77
2021/06/27 12:15:35;;;;;;;2.30;1.60;;;29.70;91.40;;;;;;5026287;28;20447;-77
2021/06/27 12:18:08;;;;;;;1.60;1.40;;;29.80;91.50;;;;;;5047383;28;20052;-76
2021/06/27 12:20:37;;;;;;;2.85;2.17;;;29.70;93.60;;;;;;5036982;28;20087;-76
2021/06/27 12:23:07;;;;;;;3.15;1.70;;;29.60;93.60;;;;;;5049475;28;20052;-72
2021/06/27 12:25:37;;;;;;;2.22;1.60;;;29.50;93.70;;;;;;5054235;28;20524;-72
2021/06/27 12:28:09;;;;;;;1.90;1.40;;;29.60;92.90;;;;;;5054302;28;20056;-71
2021/06/27 12:30:43;;;;;;;2.15;1.50;;;29.60;91.50;;;;;;5054207;28;20422;-72
2021/06/27 12:33:12;;;;;;;3.85;1.52;;;29.50;92.30;;;;;;5054004;28;20017;-72
2021/06/27 12:35:40;;;;;;;3.03;1.75;;;29.40;91.80;;;;;;5054195;28;20040;-71
2021/06/27 12:38:07;;;;;;;1.98;1.50;;;29.40;93.40;;;;;;5054163;28;20017;-71
2021/06/27 12:40:37;;;;;;;2.78;1.50;;;29.50;91.90;;;;;;5053827;28;20040;-71
2021/06/27 12:43:03;;;;;;;3.65;1.50;;;29.60;91.40;;;;;;5054201;28;20032;-71
2021/06/27 12:45:29;;;;;;;3.80;1.60;;;29.70;92.20;;;;;;5053756;28;20033;-72
2021/06/27 12:47:57;;;;;;;2.00;1.55;;;29.70;91.10;;;;;;5053837;28;20420;-71
2021/06/27 12:50:43;;;;;;;1.52;1.27;;;29.50;90.40;;;;;;5053838;28;20024;-72
2021/06/27 12:53:08;;;;;;;2.28;1.63;;;29.60;90.80;;;;;;5053452;28;20063;-72
2021/06/27 12:55:34;;;;;;;1.88;1.45;;;29.40;92.50;;;;;;5054037;28;20064;-71
2021/06/27 12:58:00;;;;;;;2.63;1.77;;;29.30;92.30;;;;;;5053751;28;20055;-71
2021/06/27 13:00:31;;;;;;;1.95;1.40;;;29.10;90.90;;;;;;5053970;28;20025;-71